Station info - map view · info · telemetry · weather · raw · status · beacons · messages · bulletins · browse · moving · my account
Callsign, ship name or locator: Clear       
It is possible to search using wildcards (*?) after a prefix. Example: OH*
APRS station OZ0CAB-7 - show graphs
Map loading...
Comment: Carl in his taxi van is back on APRS :-)
Mic-E message: In service
Location: 55°50.53' N 11°59.04' E - locator JO55XU82BC - show map - static map
1.1 miles Southeast bearing 146° from Jægerspris (Jaegerspris), Frederikssund Kommune, Capital Region, Denmark [?]
3.3 miles West bearing 273° from Frederikssund, Frederikssund Kommune, Capital Region, Denmark
25.3 miles Northwest bearing 297° from Copenhagen, Københavns Kommune, Capital Region, Denmark
42.8 miles Northwest bearing 293° from Malmö (Malmoe), Malmö Kommun, Skåne, Sweden
Last position: 2017-09-26 12:09:11 EDT (2h12m ago)
2017-09-26 18:09:11 CEST local time at Jægerspris, Denmark [?]
Altitude: 89 ft
Course: 355°
Speed: 6 MPH
Last telemetry: 2014-02-23 09:26:40 EST (1311d 3h54m ago) – show telemetry
Ch 1: 126, Ch 2: 82, Ch 3: 999, Ch 4: 311, Ch 5: 231
 1     2     3     4     5     6     7     8 
Device: Yaesu: FTM-400DR (rig)
Last path: OZ0CAB-7>U5UP53 via WIDE1-1,WIDE2-1,qAR,OZ1IEP-4 (good)
Positions stored: 1048239
Packet rate: 33 seconds between packets on average during 1627 seconds.
Other SSIDs: OZ0CAB
Stations near current position of OZ0CAB-7 - show more
callsign distance last heard - EDT      callsign distance last heard - EDT
OZ1IEP-511.6 yards 270°2017-09-26 14:19:32 OZ5DIB-111.6 yards 270°2017-09-26 14:08:57
OZ1IEP-911.6 yards 270°2017-09-26 10:15:59 OZ1IEP-411.6 yards 270°2017-09-26 13:23:22
OZ1IEP-8104.4 yards 101°2017-09-26 06:11:51 OV8LR-101.9 miles 152°2017-09-16 01:00:55
OV8LR-92.0 miles 152°2017-09-26 14:20:58 OV8LR-82.0 miles 152°2017-09-26 13:57:53
OV8LR-72.0 miles 152°2017-09-26 14:11:26 OZ7FI3.8 miles 100°2017-09-18 12:33:29
OZ9PBJ-74.0 miles 70°2017-09-26 14:15:14 EW76344.2 miles 142°2017-09-26 14:07:44
OZ2REX B4.6 miles 109°2017-09-26 14:08:51 OZ2REX-B4.6 miles 109°2017-09-26 14:09:01
OZ6FRS-34.6 miles 109°2017-09-26 13:39:17 OZ1CBW5.0 miles 109°2017-09-18 12:42:09
TRAFIK_5.8 miles 360°2017-09-26 14:12:58 EW45507.1 miles 85°2017-09-26 14:17:07
OZ3ACC-97.8 miles 131°2017-09-20 12:00:41 DO1BCK-58.5 miles 144°2017-09-10 08:44:44
Stations which heard OZ0CAB-7 directly on radio –
callsign pkts first heard - EDT last heard longest (tx => rx) longest at - EDT
OZ4DIE-2 3716 2017-09-14 07:49:17 2017-09-26 12:06:02 JD04AI > JO65FR 7720.8 miles 8° 2017-09-18 04:55:16
OZ4HZ-3 47 2017-09-14 09:42:23 2017-09-18 03:18:30 JO65HP > JO65GR 7.2 miles 325° 2017-09-18 03:18:30
OZ5DIB-1 780 2017-09-14 10:37:11 2017-09-26 12:08:46 JO65JN > JO55XU 37.1 miles 300° 2017-09-25 05:50:41
SK7WX 3 2017-09-25 05:27:05 2017-09-25 05:48:01 JO65KN > JO65PS 21.3 miles 45° 2017-09-25 05:48:01
OZ4DIS-2 1 2017-09-17 02:21:38 2017-09-17 02:21:38 JO55XU > JO55NQ 36.3 miles 253° 2017-09-17 02:21:38
OZ6FRS-3 1096 2017-09-14 10:20:38 2017-09-26 12:08:48 JO65KN > JO65BT 35.1 miles 300° 2017-09-25 05:48:04
OZ7AMG-3 903 2017-09-14 07:52:34 2017-09-26 11:08:47 JD04AI > JO65HP 7714.9 miles 8° 2017-09-17 07:09:37
OZ1IEP-4 302 2017-09-14 10:38:19 2017-09-26 12:09:11 JO65FO > JO55XU 24.0 miles 311° 2017-09-20 08:39:06
OZ1EIZ-3 1 2017-09-21 00:41:50 2017-09-21 00:41:50 JO65AP > JO65CL 10.6 miles 151° 2017-09-21 00:41:50
OZ2GRE-3 3 2017-09-19 04:55:59 2017-09-21 11:21:16 JO65FQ > JO65DO 9.1 miles 221° 2017-09-21 11:21:16
OZ5DIQ-1 269 2017-09-14 10:06:50 2017-09-26 11:51:51 JO55XS > JO65GT 22.0 miles 85° 2017-09-21 00:18:14
OZ9DIG-1 2697 2017-09-14 07:49:16 2017-09-26 11:44:01 JD04AI > JO65GQ 7717.2 miles 8° 2017-09-17 07:09:34
OZ5DSL-1 2 2017-09-14 16:01:47 2017-09-16 03:03:59 JO65CS > JO55QJ 43.8 miles 233° 2017-09-16 03:03:59
OZ6REC-1 149 2017-09-14 16:01:53 2017-09-26 12:08:25 JO65JN > JO55TP 45.8 miles 278° 2017-09-25 05:51:16
OZ8AH-1 306 2017-09-14 08:18:23 2017-09-26 11:05:56 JO65KN > JO65HQ 13.9 miles 303° 2017-09-25 05:09:24
OZ4DIQ-2 11 2017-09-17 08:44:01 2017-09-26 01:49:09 JO65AW > JO65EX 14.5 miles 79° 2017-09-26 00:38:30
OZ7HVO-1 3 2017-09-18 02:45:06 2017-09-20 02:24:38 JO65FQ > JO65FQ 453.1 yards 350° 2017-09-20 02:24:38
SK7DS-2 227 2017-09-17 03:48:46 2017-09-26 11:28:09 JO55XP > JO65JW 39.6 miles 61° 2017-09-21 00:31:39
OZ9AEC-3 111 2017-09-14 08:17:16 2017-09-26 09:00:47 JO65JN > JO65HQ 10.6 miles 317° 2017-09-25 05:51:12
OZ5X-1 34 2017-09-14 15:00:12 2017-09-26 01:28:25 JO65BT > JO55UV 17.5 miles 286° 2017-09-17 02:36:42
OZ0DMR-1 980 2017-09-14 08:57:57 2017-09-26 12:08:20 JO65KN > JO55VN 41.1 miles 270° 2017-09-25 05:08:28

Only position packets which were originated by the station are shown here. The range statistics show some extra long hops, because some digipeaters do not correctly add themselves to the digipeater path. Please check the raw packets.
About this site
This page shows real-time information collected from the Automatic Position Reporting System Internet network (APRS-IS). APRS is used by amateur (ham) radio operators to transmit real-time position information, weather data, telemetry and messages over the radio. A vehicle equipped with a GPS receiver, a VHF transmitter or HF transceiver and a small computer device called a tracker transmits it's location, speed and course in a small data packet, which is then received by a nearby iGate receiving site which forwards the packet on the Internet. Systems connected to the Internet can send information on the APRS-IS without a radio transmitter, or collect and display information transmitted anywhere in the world.
FAQ · Blog · Discussion group · Linking to aprs.fi · AIS sites · Service status · Database statistics · Advertising on aprs.fi · Technical details · API · Change log · Planned changes · Credits and thanks · Terms Of Service · iPhone/iPad APRS